sim
Sign-in with your pilot id or email,
or register
Callsign
Passwort

Schedule Details

Flight Number: RYR4484 (1)
Departure: Nuremberg Airport (EDDN) at 06:00
Arrival: Thessaloniki International Airport (LGTS) at 08:20
Route: Ryanair Passenger Schedule. Enter filed route here before submitting Pirep.

Weather Information
Getting current METAR information for EDDN 192250Z 09006KT CAVOK 15/00 Q1028
Getting current METAR information for LGTS 192250Z 15005KT 9999 FEW020 13/09 Q1023 NOSIG

Schedule Frequency

Route Map